sensor_id;sensor_type;location;lat;lon;timestamp;pressure;altitude;pressure_sealevel;temperature;humidity
36932;BME280;22847;42.654;23.370;2022-09-29T00:02:21;93796.47;;;19.12;65.51
36932;BME280;22847;42.654;23.370;2022-09-29T00:04:46;93789.03;;;19.02;66.09
36932;BME280;22847;42.654;23.370;2022-09-29T00:07:12;93782.56;;;18.98;66.12
36932;BME280;22847;42.654;23.370;2022-09-29T00:09:37;93803.06;;;19.03;65.92
36932;BME280;22847;42.654;23.370;2022-09-29T00:12:03;93801.00;;;18.80;66.02
36932;BME280;22847;42.654;23.370;2022-09-29T00:14:28;93662.72;;;18.00;65.56
36932;BME280;22847;42.654;23.370;2022-09-29T00:16:54;93771.78;;;18.50;65.67
36932;BME280;22847;42.654;23.370;2022-09-29T00:19:20;93793.41;;;18.90;65.00
36932;BME280;22847;42.654;23.370;2022-09-29T00:21:45;93829.28;;;19.04;65.57
36932;BME280;22847;42.654;23.370;2022-09-29T00:24:11;93803.63;;;19.05;65.76
36932;BME280;22847;42.654;23.370;2022-09-29T00:26:36;93816.75;;;18.93;65.89
36932;BME280;22847;42.654;23.370;2022-09-29T00:29:02;93806.56;;;18.72;65.84
36932;BME280;22847;42.654;23.370;2022-09-29T00:31:30;93800.47;;;18.02;68.81
36932;BME280;22847;42.654;23.370;2022-09-29T00:33:56;93769.84;;;18.01;67.29
36932;BME280;22847;42.654;23.370;2022-09-29T00:36:22;93624.44;;;17.22;67.74
36932;BME280;22847;42.654;23.370;2022-09-29T00:38:49;93761.41;;;17.86;67.48
36932;BME280;22847;42.654;23.370;2022-09-29T00:41:22;93792.38;;;17.97;68.72
36932;BME280;22847;42.654;23.370;2022-09-29T00:44:48;93603.88;;;16.99;67.91
36932;BME280;22847;42.654;23.370;2022-09-29T00:47:00;93808.22;;;18.35;67.98
36932;BME280;22847;42.654;23.370;2022-09-29T00:52:15;93827.06;;;18.39;67.79
36932;BME280;22847;42.654;23.370;2022-09-29T00:54:47;93783.13;;;18.51;66.90
36932;BME280;22847;42.654;23.370;2022-09-29T00:57:17;93715.88;;;18.28;66.31
36932;BME280;22847;42.654;23.370;2022-09-29T01:00:11;93800.50;;;18.65;67.25
36932;BME280;22847;42.654;23.370;2022-09-29T01:02:40;93747.94;;;18.32;67.03
36932;BME280;22847;42.654;23.370;2022-09-29T01:05:10;93788.94;;;18.35;68.66
36932;BME280;22847;42.654;23.370;2022-09-29T01:07:38;93739.97;;;18.07;67.83
36932;BME280;22847;42.654;23.370;2022-09-29T01:10:05;93639.41;;;17.66;67.26
36932;BME280;22847;42.654;23.370;2022-09-29T01:12:32;93621.94;;;17.71;66.53
36932;BME280;22847;42.654;23.370;2022-09-29T01:14:57;93803.06;;;18.78;66.53
36932;BME280;22847;42.654;23.370;2022-09-29T01:17:23;93758.06;;;18.35;66.47
36932;BME280;22847;42.654;23.370;2022-09-29T01:33:40;93788.56;;;18.62;66.36
36932;BME280;22847;42.654;23.370;2022-09-29T01:36:42;93794.81;;;18.68;65.96
36932;BME280;22847;42.654;23.370;2022-09-29T01:39:16;93798.22;;;18.75;66.08
36932;BME280;22847;42.654;23.370;2022-09-29T01:41:54;93630.06;;;17.32;66.38
36932;BME280;22847;42.654;23.370;2022-09-29T01:46:55;93815.53;;;18.64;66.36
36932;BME280;22847;42.654;23.370;2022-09-29T01:49:26;93658.31;;;17.63;66.56
36932;BME280;22847;42.654;23.370;2022-09-29T01:51:57;93838.13;;;18.60;67.27
36932;BME280;22847;42.654;23.370;2022-09-29T01:54:42;93590.03;;;16.52;69.00
36932;BME280;22847;42.654;23.370;2022-09-29T01:57:09;93806.50;;;17.71;70.24
36932;BME280;22847;42.654;23.370;2022-09-29T01:59:44;93815.56;;;17.89;69.63
36932;BME280;22847;42.654;23.370;2022-09-29T02:02:16;93771.34;;;17.84;68.89
36932;BME280;22847;42.654;23.370;2022-09-29T02:04:52;93654.03;;;17.17;68.55
36932;BME280;22847;42.654;23.370;2022-09-29T02:07:26;93832.00;;;18.28;68.54
36932;BME280;22847;42.654;23.370;2022-09-29T02:09:59;93819.78;;;18.34;67.98
36932;BME280;22847;42.654;23.370;2022-09-29T02:12:29;93809.75;;;18.18;68.51
36932;BME280;22847;42.654;23.370;2022-09-29T02:14:57;93621.31;;;16.93;68.77
36932;BME280;22847;42.654;23.370;2022-09-29T02:17:35;93658.84;;;17.33;67.87
36932;BME280;22847;42.654;23.370;2022-09-29T02:20:01;93825.28;;;18.33;68.49
36932;BME280;22847;42.654;23.370;2022-09-29T02:22:27;93659.25;;;17.30;68.38
36932;BME280;22847;42.654;23.370;2022-09-29T02:24:54;93825.84;;;18.41;68.12
36932;BME280;22847;42.654;23.370;2022-09-29T02:27:24;93811.41;;;18.44;67.86
36932;BME280;22847;42.654;23.370;2022-09-29T02:29:51;93821.34;;;18.42;68.17
36932;BME280;22847;42.654;23.370;2022-09-29T02:32:16;93831.97;;;18.35;68.05
36932;BME280;22847;42.654;23.370;2022-09-29T02:34:45;93819.66;;;18.22;68.71
36932;BME280;22847;42.654;23.370;2022-09-29T02:37:37;93846.25;;;17.83;70.19
36932;BME280;22847;42.654;23.370;2022-09-29T02:45:45;93833.25;;;18.19;67.87
36932;BME280;22847;42.654;23.370;2022-09-29T02:51:15;93874.63;;;17.88;68.38
36932;BME280;22847;42.654;23.370;2022-09-29T02:54:05;93677.69;;;16.40;69.36
36932;BME280;22847;42.654;23.370;2022-09-29T02:56:45;93846.69;;;17.67;68.42
36932;BME280;22847;42.654;23.370;2022-09-29T02:59:20;93838.56;;;17.62;68.12
36932;BME280;22847;42.654;23.370;2022-09-29T03:01:54;93679.13;;;16.03;70.47
36932;BME280;22847;42.654;23.370;2022-09-29T03:04:23;93846.56;;;17.09;70.50
36932;BME280;22847;42.654;23.370;2022-09-29T03:06:49;93796.34;;;16.91;69.60
36932;BME280;22847;42.654;23.370;2022-09-29T03:09:14;93766.31;;;17.12;69.52
36932;BME280;22847;42.654;23.370;2022-09-29T03:11:40;93802.81;;;16.95;70.59
36932;BME280;22847;42.654;23.370;2022-09-29T03:14:05;93596.59;;;16.11;69.56
36932;BME280;22847;42.654;23.370;2022-09-29T03:16:32;93582.47;;;15.92;69.88
36932;BME280;22847;42.654;23.370;2022-09-29T03:18:58;93797.53;;;17.08;70.10
36932;BME280;22847;42.654;23.370;2022-09-29T03:21:23;93811.53;;;16.63;71.83
36932;BME280;22847;42.654;23.370;2022-09-29T03:23:49;93602.38;;;15.27;73.13
36932;BME280;22847;42.654;23.370;2022-09-29T03:26:14;93723.81;;;15.90;73.67
36932;BME280;22847;42.654;23.370;2022-09-29T03:28:40;93591.03;;;15.07;72.66
36932;BME280;22847;42.654;23.370;2022-09-29T03:31:06;93793.06;;;16.49;72.14
36932;BME280;22847;42.654;23.370;2022-09-29T03:33:36;93800.75;;;16.44;71.53
36932;BME280;22847;42.654;23.370;2022-09-29T03:36:03;93825.91;;;16.86;71.80
36932;BME280;22847;42.654;23.370;2022-09-29T03:38:30;93833.41;;;16.96;71.41
36932;BME280;22847;42.654;23.370;2022-09-29T03:40:55;93665.59;;;16.06;70.77
36932;BME280;22847;42.654;23.370;2022-09-29T03:43:21;93617.22;;;15.68;71.01
36932;BME280;22847;42.654;23.370;2022-09-29T03:45:50;93904.09;;;16.86;71.44
36932;BME280;22847;42.654;23.370;2022-09-29T03:48:16;93818.38;;;17.23;70.14
36932;BME280;22847;42.654;23.370;2022-09-29T03:50:44;93243.75;;;13.21;71.60
36932;BME280;22847;42.654;23.370;2022-09-29T03:53:10;93833.13;;;17.44;70.82
36932;BME280;22847;42.654;23.370;2022-09-29T03:55:36;93814.56;;;16.99;71.38
36932;BME280;22847;42.654;23.370;2022-09-29T03:58:01;93830.78;;;16.76;71.83
36932;BME280;22847;42.654;23.370;2022-09-29T04:00:26;93839.66;;;17.21;71.39
36932;BME280;22847;42.654;23.370;2022-09-29T04:02:55;93862.97;;;17.11;71.94
36932;BME280;22847;42.654;23.370;2022-09-29T04:05:20;93822.88;;;16.70;73.53
36932;BME280;22847;42.654;23.370;2022-09-29T04:07:46;93822.63;;;17.17;72.55
36932;BME280;22847;42.654;23.370;2022-09-29T04:10:12;93746.94;;;16.73;72.75
36932;BME280;22847;42.654;23.370;2022-09-29T04:12:38;93622.22;;;15.49;73.38
36932;BME280;22847;42.654;23.370;2022-09-29T04:15:04;93893.34;;;16.81;74.49
36932;BME280;22847;42.654;23.370;2022-09-29T04:17:29;93852.03;;;16.94;73.72
36932;BME280;22847;42.654;23.370;2022-09-29T04:19:55;93841.09;;;17.04;73.23
36932;BME280;22847;42.654;23.370;2022-09-29T04:22:20;93664.56;;;16.20;71.35
36932;BME280;22847;42.654;23.370;2022-09-29T04:24:46;93823.28;;;16.80;72.94
36932;BME280;22847;42.654;23.370;2022-09-29T04:27:17;93868.03;;;16.86;72.76
36932;BME280;22847;42.654;23.370;2022-09-29T04:29:42;93804.44;;;16.63;73.03
36932;BME280;22847;42.654;23.370;2022-09-29T04:32:08;93639.03;;;15.48;72.86
36932;BME280;22847;42.654;23.370;2022-09-29T04:34:33;93839.41;;;16.44;74.38
36932;BME280;22847;42.654;23.370;2022-09-29T04:36:59;93882.38;;;16.58;73.96
36932;BME280;22847;42.654;23.370;2022-09-29T04:39:24;93856.50;;;16.61;72.73
36932;BME280;22847;42.654;23.370;2022-09-29T04:41:50;93857.09;;;17.09;72.11
36932;BME280;22847;42.654;23.370;2022-09-29T04:44:15;93862.75;;;16.67;74.11
36932;BME280;22847;42.654;23.370;2022-09-29T04:46:41;93790.28;;;15.71;77.74
36932;BME280;22847;42.654;23.370;2022-09-29T04:49:06;93854.31;;;15.56;79.90
36932;BME280;22847;42.654;23.370;2022-09-29T04:51:32;93814.50;;;16.20;76.37
36932;BME280;22847;42.654;23.370;2022-09-29T04:53:58;93818.16;;;16.32;75.55
36932;BME280;22847;42.654;23.370;2022-09-29T04:56:23;93837.66;;;16.71;74.45
36932;BME280;22847;42.654;23.370;2022-09-29T04:58:49;93787.00;;;16.29;74.13
36932;BME280;22847;42.654;23.370;2022-09-29T05:01:15;93848.38;;;16.89;72.44
36932;BME280;22847;42.654;23.370;2022-09-29T05:03:41;93860.56;;;17.10;71.54
36932;BME280;22847;42.654;23.370;2022-09-29T05:06:08;93814.59;;;16.79;72.06
36932;BME280;22847;42.654;23.370;2022-09-29T05:08:34;93626.13;;;15.73;71.58
36932;BME280;22847;42.654;23.370;2022-09-29T05:11:06;93684.81;;;16.06;72.27
36932;BME280;22847;42.654;23.370;2022-09-29T05:13:32;93843.94;;;16.70;73.81
36932;BME280;22847;42.654;23.370;2022-09-29T05:15:57;93833.09;;;16.19;74.98
36932;BME280;22847;42.654;23.370;2022-09-29T05:18:24;93804.34;;;16.17;74.72
36932;BME280;22847;42.654;23.370;2022-09-29T05:20:50;93823.06;;;16.62;73.40
36932;BME280;22847;42.654;23.370;2022-09-29T05:23:16;93633.59;;;15.56;72.42
36932;BME280;22847;42.654;23.370;2022-09-29T05:25:41;93845.94;;;17.07;72.21
36932;BME280;22847;42.654;23.370;2022-09-29T05:28:09;93652.22;;;15.94;71.36
36932;BME280;22847;42.654;23.370;2022-09-29T05:30:35;93843.66;;;17.44;70.49
36932;BME280;22847;42.654;23.370;2022-09-29T05:33:01;93820.56;;;17.59;69.92
36932;BME280;22847;42.654;23.370;2022-09-29T05:35:26;93863.75;;;19.34;62.96
36932;BME280;22847;42.654;23.370;2022-09-29T05:37:52;93841.09;;;22.29;54.39
36932;BME280;22847;42.654;23.370;2022-09-29T05:40:17;93832.00;;;25.32;46.04
36932;BME280;22847;42.654;23.370;2022-09-29T05:42:44;93690.72;;;25.62;42.52
36932;BME280;22847;42.654;23.370;2022-09-29T05:45:09;93732.56;;;23.16;46.14
36932;BME280;22847;42.654;23.370;2022-09-29T05:47:40;93695.81;;;25.64;41.58
36932;BME280;22847;42.654;23.370;2022-09-29T05:50:06;93844.84;;;28.18;38.85
36932;BME280;22847;42.654;23.370;2022-09-29T05:52:32;93818.66;;;29.08;36.54
36932;BME280;22847;42.654;23.370;2022-09-29T05:54:57;93862.41;;;29.52;34.91
36932;BME280;22847;42.654;23.370;2022-09-29T05:57:23;93844.97;;;30.07;34.13
36932;BME280;22847;42.654;23.370;2022-09-29T05:59:48;93857.91;;;30.29;33.94
36932;BME280;22847;42.654;23.370;2022-09-29T06:02:14;93841.66;;;30.16;33.99
36932;BME280;22847;42.654;23.370;2022-09-29T06:04:39;93814.06;;;29.47;35.02
36932;BME280;22847;42.654;23.370;2022-09-29T06:07:05;93697.22;;;28.48;35.04
36932;BME280;22847;42.654;23.370;2022-09-29T06:09:32;93700.00;;;27.74;35.86
36932;BME280;22847;42.654;23.370;2022-09-29T06:11:58;93885.53;;;28.45;36.41
36932;BME280;22847;42.654;23.370;2022-09-29T06:14:23;93863.38;;;27.94;37.78
36932;BME280;22847;42.654;23.370;2022-09-29T06:16:49;93842.97;;;26.82;39.24
36932;BME280;22847;42.654;23.370;2022-09-29T06:19:15;93865.44;;;26.18;41.19
36932;BME280;22847;42.654;23.370;2022-09-29T06:21:40;93874.34;;;25.87;42.32
36932;BME280;22847;42.654;23.370;2022-09-29T06:24:06;93861.78;;;26.25;41.33
36932;BME280;22847;42.654;23.370;2022-09-29T06:26:31;93715.28;;;25.17;41.16
36932;BME280;22847;42.654;23.370;2022-09-29T06:28:57;93718.41;;;25.04;41.26
36932;BME280;22847;42.654;23.370;2022-09-29T06:31:25;93703.06;;;24.53;42.33
36932;BME280;22847;42.654;23.370;2022-09-29T06:33:51;93820.56;;;25.68;41.92
36932;BME280;22847;42.654;23.370;2022-09-29T06:36:25;93834.84;;;25.94;41.41
36932;BME280;22847;42.654;23.370;2022-09-29T06:39:12;93716.47;;;25.84;40.14
36932;BME280;22847;42.654;23.370;2022-09-29T06:41:38;93792.00;;;26.26;40.05
36932;BME280;22847;42.654;23.370;2022-09-29T06:44:04;93886.00;;;26.75;40.41
36932;BME280;22847;42.654;23.370;2022-09-29T06:46:30;93696.75;;;25.38;40.93
36932;BME280;22847;42.654;23.370;2022-09-29T06:48:55;93872.06;;;26.06;41.56
36932;BME280;22847;42.654;23.370;2022-09-29T06:51:21;93864.47;;;25.51;42.63
36932;BME280;22847;42.654;23.370;2022-09-29T06:53:48;93715.44;;;24.37;43.90
36932;BME280;22847;42.654;23.370;2022-09-29T06:56:14;93842.09;;;24.93;44.25
36932;BME280;22847;42.654;23.370;2022-09-29T06:58:39;93715.03;;;24.01;44.67
36932;BME280;22847;42.654;23.370;2022-09-29T07:01:05;93781.03;;;23.94;44.73
36932;BME280;22847;42.654;23.370;2022-09-29T07:03:32;93872.75;;;24.69;44.09
36932;BME280;22847;42.654;23.370;2022-09-29T07:06:02;93875.13;;;24.65;44.89
36932;BME280;22847;42.654;23.370;2022-09-29T07:08:28;93846.97;;;24.09;45.07
36932;BME280;22847;42.654;23.370;2022-09-29T07:10:53;93895.56;;;24.60;45.48
36932;BME280;22847;42.654;23.370;2022-09-29T07:13:20;93824.06;;;24.52;45.42
36932;BME280;22847;42.654;23.370;2022-09-29T07:15:46;93929.50;;;25.13;45.35
36932;BME280;22847;42.654;23.370;2022-09-29T07:18:12;93889.09;;;25.26;44.44
36932;BME280;22847;42.654;23.370;2022-09-29T07:20:39;93881.94;;;23.58;47.28
36932;BME280;22847;42.654;23.370;2022-09-29T07:23:05;93872.19;;;22.85;49.67
36932;BME280;22847;42.654;23.370;2022-09-29T07:25:32;93874.13;;;22.33;51.24
36932;BME280;22847;42.654;23.370;2022-09-29T07:27:59;93889.69;;;22.69;50.25
36932;BME280;22847;42.654;23.370;2022-09-29T07:30:25;93874.31;;;22.99;50.10
36932;BME280;22847;42.654;23.370;2022-09-29T07:32:54;93878.53;;;23.12;48.83
36932;BME280;22847;42.654;23.370;2022-09-29T07:35:21;93831.59;;;23.56;48.79
36932;BME280;22847;42.654;23.370;2022-09-29T07:37:50;93881.38;;;24.32;46.91
36932;BME280;22847;42.654;23.370;2022-09-29T07:40:16;93877.97;;;23.77;47.40
36932;BME280;22847;42.654;23.370;2022-09-29T07:42:41;93832.59;;;23.00;48.29
36932;BME280;22847;42.654;23.370;2022-09-29T07:45:07;93679.09;;;21.32;49.70
36932;BME280;22847;42.654;23.370;2022-09-29T07:47:33;93720.91;;;21.53;50.46
36932;BME280;22847;42.654;23.370;2022-09-29T07:49:58;93666.34;;;21.86;48.66
36932;BME280;22847;42.654;23.370;2022-09-29T07:52:23;93676.47;;;21.89;49.07
36932;BME280;22847;42.654;23.370;2022-09-29T07:54:49;93896.41;;;23.00;49.41
36932;BME280;22847;42.654;23.370;2022-09-29T07:57:14;93903.59;;;23.16;49.08
36932;BME280;22847;42.654;23.370;2022-09-29T07:59:40;93900.69;;;24.18;47.18
36932;BME280;22847;42.654;23.370;2022-09-29T08:02:05;93839.47;;;23.84;45.98
36932;BME280;22847;42.654;23.370;2022-09-29T08:04:32;93799.16;;;24.19;44.32
36932;BME280;22847;42.654;23.370;2022-09-29T08:06:57;93912.25;;;24.72;44.61
36932;BME280;22847;42.654;23.370;2022-09-29T08:09:22;93719.59;;;24.28;43.99
36932;BME280;22847;42.654;23.370;2022-09-29T08:11:49;93918.16;;;25.54;43.54
36932;BME280;22847;42.654;23.370;2022-09-29T08:14:14;93933.59;;;25.79;43.55
36932;BME280;22847;42.654;23.370;2022-09-29T08:16:39;93783.47;;;24.98;43.69
36932;BME280;22847;42.654;23.370;2022-09-29T08:19:05;93921.00;;;25.43;43.05
36932;BME280;22847;42.654;23.370;2022-09-29T08:21:31;93901.25;;;25.44;43.77
36932;BME280;22847;42.654;23.370;2022-09-29T08:24:03;93899.03;;;25.67;43.34
36932;BME280;22847;42.654;23.370;2022-09-29T08:26:30;93763.13;;;24.92;41.56
36932;BME280;22847;42.654;23.370;2022-09-29T08:28:56;93921.50;;;26.08;41.46
36932;BME280;22847;42.654;23.370;2022-09-29T08:31:22;93902.88;;;25.82;41.80
36932;BME280;22847;42.654;23.370;2022-09-29T08:33:50;93920.66;;;25.61;42.89
36932;BME280;22847;42.654;23.370;2022-09-29T08:36:17;93928.03;;;25.86;43.09
36932;BME280;22847;42.654;23.370;2022-09-29T08:38:44;93946.69;;;26.17;42.41
36932;BME280;22847;42.654;23.370;2022-09-29T08:43:45;93892.63;;;26.47;41.58
36932;BME280;22847;42.654;23.370;2022-09-29T08:46:25;93920.19;;;26.58;41.01
36932;BME280;22847;42.654;23.370;2022-09-29T08:48:53;93935.09;;;26.02;41.46
36932;BME280;22847;42.654;23.370;2022-09-29T08:51:28;93923.41;;;25.71;42.56
36932;BME280;22847;42.654;23.370;2022-09-29T08:53:56;93919.97;;;25.49;42.59
36932;BME280;22847;42.654;23.370;2022-09-29T08:56:25;93751.22;;;24.19;43.17
36932;BME280;22847;42.654;23.370;2022-09-29T08:58:51;93945.84;;;25.16;43.20
36932;BME280;22847;42.654;23.370;2022-09-29T09:07:00;93916.88;;;24.81;44.24
36932;BME280;22847;42.654;23.370;2022-09-29T09:15:04;93918.34;;;24.07;46.50
36932;BME280;22847;42.654;23.370;2022-09-29T09:20:58;93943.66;;;25.40;45.10
36932;BME280;22847;42.654;23.370;2022-09-29T09:23:40;93738.63;;;24.95;42.48
36932;BME280;22847;42.654;23.370;2022-09-29T09:26:09;93893.41;;;26.01;42.41
36932;BME280;22847;42.654;23.370;2022-09-29T09:29:02;93918.16;;;25.86;41.87
36932;BME280;22847;42.654;23.370;2022-09-29T09:31:42;93755.25;;;24.00;41.84
36932;BME280;22847;42.654;23.370;2022-09-29T09:34:17;93907.28;;;25.61;41.15
36932;BME280;22847;42.654;23.370;2022-09-29T09:36:50;93913.09;;;26.27;40.82
36932;BME280;22847;42.654;23.370;2022-09-29T09:39:41;93914.25;;;27.18;38.43
36932;BME280;22847;42.654;23.370;2022-09-29T09:42:30;93730.28;;;26.38;37.75
36932;BME280;22847;42.654;23.370;2022-09-29T09:45:11;93901.72;;;27.74;36.83
36932;BME280;22847;42.654;23.370;2022-09-29T09:47:48;93904.94;;;27.61;36.84
36932;BME280;22847;42.654;23.370;2022-09-29T09:50:18;93896.91;;;27.81;37.15
36932;BME280;22847;42.654;23.370;2022-09-29T09:55:20;93811.97;;;27.72;35.82
36932;BME280;22847;42.654;23.370;2022-09-29T09:58:00;93901.06;;;28.43;34.90
36932;BME280;22847;42.654;23.370;2022-09-29T10:03:14;93792.44;;;27.41;35.11
36932;BME280;22847;42.654;23.370;2022-09-29T10:05:44;93898.41;;;28.33;34.31
36932;BME280;22847;42.654;23.370;2022-09-29T10:08:27;93905.56;;;28.68;34.58
36932;BME280;22847;42.654;23.370;2022-09-29T10:10:54;93925.06;;;28.94;33.54
36932;BME280;22847;42.654;23.370;2022-09-29T10:13:24;93906.38;;;28.68;34.18
36932;BME280;22847;42.654;23.370;2022-09-29T10:15:54;93862.56;;;28.14;33.06
36932;BME280;22847;42.654;23.370;2022-09-29T10:19:07;93917.16;;;27.01;34.30
36932;BME280;22847;42.654;23.370;2022-09-29T10:21:36;93912.88;;;26.38;35.93
36932;BME280;22847;42.654;23.370;2022-09-29T10:24:03;93894.19;;;26.38;35.75
36932;BME280;22847;42.654;23.370;2022-09-29T10:29:01;93891.34;;;25.71;36.97
36932;BME280;22847;42.654;23.370;2022-09-29T10:31:33;93905.63;;;26.29;35.67
36932;BME280;22847;42.654;23.370;2022-09-29T10:36:51;93757.16;;;26.01;35.63
36932;BME280;22847;42.654;23.370;2022-09-29T10:39:43;93881.31;;;27.13;35.41
36932;BME280;22847;42.654;23.370;2022-09-29T10:42:21;93706.47;;;26.31;34.17
36932;BME280;22847;42.654;23.370;2022-09-29T10:45:00;93918.75;;;26.92;33.60
36932;BME280;22847;42.654;23.370;2022-09-29T10:47:26;93905.91;;;26.32;34.29
36932;BME280;22847;42.654;23.370;2022-09-29T10:52:36;93773.56;;;25.30;35.92
36932;BME280;22847;42.654;23.370;2022-09-29T10:55:02;93743.03;;;25.11;35.66
36932;BME280;22847;42.654;23.370;2022-09-29T10:57:31;93900.13;;;26.08;36.12
36932;BME280;22847;42.654;23.370;2022-09-29T10:59:57;93832.13;;;25.47;35.92
36932;BME280;22847;42.654;23.370;2022-09-29T11:04:58;93756.06;;;24.76;37.07
36932;BME280;22847;42.654;23.370;2022-09-29T11:07:25;93898.03;;;25.73;36.20
36932;BME280;22847;42.654;23.370;2022-09-29T11:09:51;93896.09;;;25.64;36.29
36932;BME280;22847;42.654;23.370;2022-09-29T11:12:35;93722.97;;;24.77;36.17
36932;BME280;22847;42.654;23.370;2022-09-29T11:15:28;93885.53;;;25.47;36.15
36932;BME280;22847;42.654;23.370;2022-09-29T11:17:55;93852.69;;;25.47;36.53
36932;BME280;22847;42.654;23.370;2022-09-29T11:20:24;93702.66;;;24.39;37.46
36932;BME280;22847;42.654;23.370;2022-09-29T11:31:30;93897.78;;;25.43;36.19
36932;BME280;22847;42.654;23.370;2022-09-29T11:34:25;93873.53;;;25.50;36.55
36932;BME280;22847;42.654;23.370;2022-09-29T11:45:21;93803.25;;;24.49;37.35
36932;BME280;22847;42.654;23.370;2022-09-29T11:53:17;93875.00;;;25.04;37.67
36932;BME280;22847;42.654;23.370;2022-09-29T11:58:57;93873.13;;;25.04;37.58
36932;BME280;22847;42.654;23.370;2022-09-29T12:07:16;93863.53;;;24.76;37.68
36932;BME280;22847;42.654;23.370;2022-09-29T12:10:01;93868.25;;;24.96;38.13
36932;BME280;22847;42.654;23.370;2022-09-29T12:17:33;93828.81;;;24.98;37.39
36932;BME280;22847;42.654;23.370;2022-09-29T12:20:04;93717.81;;;24.33;37.37
36932;BME280;22847;42.654;23.370;2022-09-29T12:22:31;93844.44;;;25.16;36.05
36932;BME280;22847;42.654;23.370;2022-09-29T12:24:58;93660.22;;;24.06;36.07
36932;BME280;22847;42.654;23.370;2022-09-29T12:27:28;93765.97;;;24.80;35.49
36932;BME280;22847;42.654;23.370;2022-09-29T12:30:19;93802.94;;;25.36;36.10
36932;BME280;22847;42.654;23.370;2022-09-29T12:32:50;93905.84;;;25.80;34.26
36932;BME280;22847;42.654;23.370;2022-09-29T12:35:24;93870.75;;;25.71;34.13
36932;BME280;22847;42.654;23.370;2022-09-29T12:41:01;93876.53;;;25.58;34.03
36932;BME280;22847;42.654;23.370;2022-09-29T12:46:29;93695.69;;;24.97;33.87
36932;BME280;22847;42.654;23.370;2022-09-29T12:49:20;93863.16;;;26.37;33.68
36932;BME280;22847;42.654;23.370;2022-09-29T12:51:48;93884.34;;;26.54;33.83
36932;BME280;22847;42.654;23.370;2022-09-29T12:54:21;93694.19;;;25.58;33.54
36932;BME280;22847;42.654;23.370;2022-09-29T12:56:54;93826.88;;;26.56;33.60
36932;BME280;22847;42.654;23.370;2022-09-29T12:59:36;93881.47;;;26.76;34.66
36932;BME280;22847;42.654;23.370;2022-09-29T13:29:22;93696.78;;;24.37;36.19
36932;BME280;22847;42.654;23.370;2022-09-29T13:31:49;93828.97;;;25.18;36.60
36932;BME280;22847;42.654;23.370;2022-09-29T13:34:29;93833.28;;;24.93;36.89
36932;BME280;22847;42.654;23.370;2022-09-29T13:37:13;93829.81;;;24.92;36.71
36932;BME280;22847;42.654;23.370;2022-09-29T13:40:00;93686.94;;;23.89;37.47
36932;BME280;22847;42.654;23.370;2022-09-29T13:42:43;93840.44;;;24.87;37.85
36932;BME280;22847;42.654;23.370;2022-09-29T13:47:44;93886.19;;;25.01;38.27
36932;BME280;22847;42.654;23.370;2022-09-29T13:58:32;93882.09;;;24.06;41.58
36932;BME280;22847;42.654;23.370;2022-09-29T14:01:00;93856.00;;;23.86;41.97
36932;BME280;22847;42.654;23.370;2022-09-29T14:03:43;93850.63;;;23.81;42.25
36932;BME280;22847;42.654;23.370;2022-09-29T14:06:14;93858.22;;;23.73;42.75
36932;BME280;22847;42.654;23.370;2022-09-29T14:11:37;93883.63;;;24.02;42.56
36932;BME280;22847;42.654;23.370;2022-09-29T14:14:07;93882.28;;;23.99;43.12
36932;BME280;22847;42.654;23.370;2022-09-29T14:19:09;93963.72;;;23.95;44.05
36932;BME280;22847;42.654;23.370;2022-09-29T14:27:24;93728.84;;;22.66;44.84
36932;BME280;22847;42.654;23.370;2022-09-29T14:33:02;93973.94;;;23.87;48.45
36932;BME280;22847;42.654;23.370;2022-09-29T14:40:27;94019.03;;;22.40;61.38
36932;BME280;22847;42.654;23.370;2022-09-29T14:46:22;94018.97;;;21.70;66.28
36932;BME280;22847;42.654;23.370;2022-09-29T15:00:11;94026.38;;;21.68;66.85
36932;BME280;22847;42.654;23.370;2022-09-29T15:02:47;93994.75;;;21.55;67.18
36932;BME280;22847;42.654;23.370;2022-09-29T15:05:27;94011.69;;;21.66;66.80
36932;BME280;22847;42.654;23.370;2022-09-29T15:07:54;94011.47;;;21.67;67.21
36932;BME280;22847;42.654;23.370;2022-09-29T15:13:14;93984.91;;;21.44;67.91
36932;BME280;22847;42.654;23.370;2022-09-29T15:15:40;94009.75;;;21.61;70.08
36932;BME280;22847;42.654;23.370;2022-09-29T15:21:08;93981.59;;;21.60;68.88
36932;BME280;22847;42.654;23.370;2022-09-29T15:23:55;94017.53;;;21.45;67.29
36932;BME280;22847;42.654;23.370;2022-09-29T15:26:27;93785.63;;;20.23;69.77
36932;BME280;22847;42.654;23.370;2022-09-29T15:28:55;93885.94;;;20.90;72.31
36932;BME280;22847;42.654;23.370;2022-09-29T15:31:28;93961.84;;;21.33;72.83
36932;BME280;22847;42.654;23.370;2022-09-29T15:33:55;93807.59;;;20.41;72.77
36932;BME280;22847;42.654;23.370;2022-09-29T15:36:25;94007.53;;;21.47;72.46
36932;BME280;22847;42.654;23.370;2022-09-29T15:41:22;94012.63;;;21.00;72.14
36932;BME280;22847;42.654;23.370;2022-09-29T15:51:33;94037.50;;;20.99;71.91
36932;BME280;22847;42.654;23.370;2022-09-29T15:54:01;93907.00;;;20.26;71.27
36932;BME280;22847;42.654;23.370;2022-09-29T15:56:30;93847.22;;;19.82;70.43
36932;BME280;22847;42.654;23.370;2022-09-29T15:58:56;93977.56;;;20.68;69.71
36932;BME280;22847;42.654;23.370;2022-09-29T16:01:21;93834.09;;;19.75;68.19
36932;BME280;22847;42.654;23.370;2022-09-29T16:03:51;94016.78;;;20.78;67.66
36932;BME280;22847;42.654;23.370;2022-09-29T16:06:33;94009.69;;;20.90;67.75
36932;BME280;22847;42.654;23.370;2022-09-29T16:09:03;94026.56;;;20.96;72.26
36932;BME280;22847;42.654;23.370;2022-09-29T16:11:32;94025.03;;;20.88;72.02
36932;BME280;22847;42.654;23.370;2022-09-29T16:14:06;93931.03;;;20.06;70.64
36932;BME280;22847;42.654;23.370;2022-09-29T16:16:39;94009.53;;;20.55;70.46